createdAt,value
2023-04-28T00:02:14.949Z,11.35
2023-04-28T00:04:41.914Z,11.02
2023-04-28T00:07:08.673Z,10.52
2023-04-28T00:09:41.396Z,10.30
2023-04-28T00:12:07.993Z,10.77
2023-04-28T00:14:34.832Z,10.00
2023-04-28T00:17:08.238Z,11.48
2023-04-28T00:19:35.857Z,10.68
2023-04-28T00:22:02.485Z,10.50
2023-04-28T00:24:29.004Z,10.90
2023-04-28T00:26:56.272Z,10.60
2023-04-28T00:29:22.851Z,11.02
2023-04-28T00:31:49.376Z,11.05
2023-04-28T00:34:16.433Z,11.25
2023-04-28T00:36:43.468Z,11.35
2023-04-28T00:39:10.134Z,11.38
2023-04-28T00:41:37.018Z,10.63
2023-04-28T00:44:03.573Z,10.38
2023-04-28T00:46:32.005Z,11.02
2023-04-28T00:49:01.707Z,11.10
2023-04-28T00:51:29.166Z,10.75
2023-04-28T00:53:56.814Z,11.15
2023-04-28T00:56:23.364Z,10.18
2023-04-28T00:58:50.302Z,11.23
2023-04-28T01:01:17.097Z,10.90
2023-04-28T01:03:44.221Z,9.80
2023-04-28T01:06:12.334Z,10.20
2023-04-28T01:08:39.853Z,11.00
2023-04-28T01:11:14.428Z,10.82
2023-04-28T01:14:07.325Z,10.10
2023-04-28T01:16:38.524Z,10.05
2023-04-28T01:19:07.737Z,10.15
2023-04-28T01:21:39.807Z,9.85
2023-04-28T01:24:29.000Z,9.60
2023-04-28T01:26:59.456Z,9.88
2023-04-28T01:29:27.795Z,10.00
2023-04-28T01:31:57.825Z,10.20
2023-04-28T01:34:24.594Z,10.35
2023-04-28T01:36:51.177Z,10.35
2023-04-28T01:39:17.951Z,10.25
2023-04-28T01:41:44.716Z,10.25
2023-04-28T01:44:13.082Z,10.18
2023-04-28T01:46:39.632Z,10.30
2023-04-28T01:49:06.638Z,10.45
2023-04-28T01:51:33.975Z,10.35
2023-04-28T01:54:01.812Z,10.15
2023-04-28T01:56:29.272Z,9.75
2023-04-28T01:58:57.395Z,10.10
2023-04-28T02:01:24.002Z,9.55
2023-04-28T02:03:50.892Z,9.90
2023-04-28T02:06:17.891Z,10.25
2023-04-28T02:08:44.434Z,10.55
2023-04-28T02:11:33.373Z,9.63
2023-04-28T02:14:00.104Z,10.07
2023-04-28T02:16:26.892Z,9.88
2023-04-28T02:18:53.634Z,10.30
2023-04-28T02:21:20.480Z,10.85
2023-04-28T02:23:47.463Z,11.07
2023-04-28T02:26:14.152Z,10.40
2023-04-28T02:28:41.791Z,10.32
2023-04-28T02:31:09.518Z,10.90
2023-04-28T02:33:36.725Z,10.82
2023-04-28T02:36:04.134Z,10.35
2023-04-28T02:38:31.080Z,11.13
2023-04-28T02:40:58.886Z,11.80
2023-04-28T02:43:25.555Z,11.95
2023-04-28T02:45:53.206Z,11.15
2023-04-28T02:48:19.839Z,11.73
2023-04-28T02:50:46.728Z,33.03
2023-04-28T02:53:13.430Z,32.83
2023-04-28T02:55:40.002Z,19.98
2023-04-28T02:58:07.177Z,17.05
2023-04-28T03:00:33.812Z,17.60
2023-04-28T03:03:01.017Z,18.38
2023-04-28T03:05:27.856Z,18.77
2023-04-28T03:07:54.401Z,14.20
2023-04-28T03:10:21.240Z,13.60
2023-04-28T03:12:47.788Z,12.40
2023-04-28T03:15:14.439Z,12.40
2023-04-28T03:17:42.323Z,12.13
2023-04-28T03:20:09.379Z,14.90
2023-04-28T03:22:36.097Z,15.25
2023-04-28T03:25:03.307Z,12.93
2023-04-28T03:27:33.435Z,12.18
2023-04-28T03:30:01.656Z,11.35
2023-04-28T03:32:28.498Z,10.55
2023-04-28T03:34:55.557Z,11.45
2023-04-28T03:37:22.026Z,9.88
2023-04-28T03:39:48.745Z,10.73
2023-04-28T03:42:15.505Z,10.20
2023-04-28T03:45:17.327Z,9.75
2023-04-28T03:47:44.334Z,10.48
2023-04-28T03:50:11.059Z,10.15
2023-04-28T03:52:37.570Z,11.02
2023-04-28T03:55:04.182Z,10.90
2023-04-28T03:57:30.787Z,12.55
2023-04-28T03:59:57.320Z,12.43
2023-04-28T04:02:24.067Z,11.18
2023-04-28T04:04:51.043Z,10.93
2023-04-28T04:07:18.191Z,10.68
2023-04-28T04:09:44.696Z,10.98
2023-04-28T04:12:11.377Z,10.63
2023-04-28T04:14:37.942Z,10.68
2023-04-28T04:17:04.443Z,9.32
2023-04-28T04:19:31.344Z,9.70
2023-04-28T04:21:57.863Z,9.88
2023-04-28T04:24:25.009Z,9.40
2023-04-28T04:26:51.741Z,9.00
2023-04-28T04:29:28.792Z,9.20
2023-04-28T04:31:55.620Z,8.95
2023-04-28T04:34:22.174Z,9.13
2023-04-28T04:36:49.084Z,8.43
2023-04-28T04:39:15.978Z,8.60
2023-04-28T04:41:42.517Z,8.70
2023-04-28T04:44:31.853Z,8.75
2023-04-28T04:47:01.132Z,8.88
2023-04-28T04:49:27.840Z,8.93
2023-04-28T04:51:56.231Z,9.07
2023-04-28T04:54:23.078Z,8.85
2023-04-28T04:56:49.830Z,9.35
2023-04-28T04:59:31.543Z,9.27
2023-04-28T05:02:05.816Z,8.27
2023-04-28T05:04:39.201Z,8.48
2023-04-28T05:07:10.078Z,8.82
2023-04-28T05:09:39.754Z,8.10
2023-04-28T05:12:06.764Z,8.55
2023-04-28T05:14:33.573Z,7.95
2023-04-28T05:17:01.097Z,7.57
2023-04-28T05:19:36.778Z,8.10
2023-04-28T05:22:03.910Z,7.78
2023-04-28T05:24:33.026Z,7.63
2023-04-28T05:27:02.973Z,7.68
2023-04-28T05:29:29.872Z,7.43
2023-04-28T05:31:56.790Z,7.93
2023-04-28T05:34:24.431Z,7.85
2023-04-28T05:36:52.448Z,7.55
2023-04-28T05:39:23.835Z,7.53
2023-04-28T05:41:50.835Z,7.70
2023-04-28T05:44:17.640Z,7.60
2023-04-28T05:46:45.506Z,6.95
2023-04-28T05:49:12.369Z,6.38
2023-04-28T05:51:39.691Z,6.80
2023-04-28T05:54:06.804Z,7.18
2023-04-28T05:56:39.505Z,6.32
2023-04-28T06:04:21.080Z,6.00
2023-04-28T06:06:49.187Z,6.45
2023-04-28T06:09:17.012Z,6.50
2023-04-28T06:14:48.720Z,7.00
2023-04-28T06:17:31.670Z,8.10
2023-04-28T06:20:01.612Z,6.43
2023-04-28T06:22:47.497Z,9.73
2023-04-28T06:25:19.615Z,17.65
2023-04-28T06:27:56.692Z,15.93
2023-04-28T06:30:34.067Z,16.77
2023-04-28T06:38:52.823Z,9.88
2023-04-28T06:41:24.149Z,8.05
2023-04-28T06:43:56.277Z,7.70
2023-04-28T06:46:32.653Z,6.05
2023-04-28T06:48:59.420Z,5.75
2023-04-28T06:51:26.876Z,6.10
2023-04-28T06:53:57.347Z,5.38
2023-04-28T06:56:34.076Z,5.50
2023-04-28T06:59:05.557Z,5.35
2023-04-28T07:01:46.699Z,5.85
2023-04-28T07:04:29.390Z,5.90
2023-04-28T07:07:22.102Z,5.50
2023-04-28T07:10:02.488Z,5.38
2023-04-28T07:12:36.347Z,5.77
2023-04-28T07:15:13.756Z,6.65
2023-04-28T07:36:32.092Z,17.08
2023-04-28T07:43:17.802Z,6.95
2023-04-28T08:27:13.232Z,2.95
2023-04-28T08:30:23.372Z,3.15
2023-04-28T08:33:10.336Z,3.00
2023-04-28T08:35:44.753Z,3.22
2023-04-28T08:39:02.861Z,2.58
2023-04-28T08:41:39.894Z,2.65
2023-04-28T08:44:31.134Z,2.90
2023-04-28T08:50:37.738Z,2.90
2023-04-28T08:53:31.382Z,2.80
2023-04-28T09:00:22.234Z,2.58
2023-04-28T09:03:24.635Z,2.88
2023-04-28T09:07:21.486Z,3.03
2023-04-28T09:16:18.821Z,2.60
2023-04-28T09:19:14.876Z,2.70
2023-04-28T09:22:26.110Z,2.80
2023-04-28T09:26:08.843Z,2.58
2023-04-28T09:54:44.013Z,3.50
2023-04-28T09:58:06.338Z,3.60
2023-04-28T10:00:43.940Z,3.70
2023-04-28T10:03:11.957Z,3.65
2023-04-28T10:05:40.243Z,3.40
2023-04-28T10:08:09.916Z,3.63
2023-04-28T10:10:38.103Z,3.78
2023-04-28T10:13:05.040Z,3.90
2023-04-28T10:15:40.713Z,4.03
2023-04-28T10:18:08.860Z,4.53
2023-04-28T10:20:38.825Z,4.20
2023-04-28T10:23:23.945Z,3.88
2023-04-28T10:25:57.982Z,3.45
2023-04-28T10:28:36.917Z,4.72
2023-04-28T10:44:43.951Z,4.13
2023-04-28T10:47:11.251Z,4.35
2023-04-28T10:49:59.176Z,4.82
2023-04-28T10:52:31.854Z,4.60
2023-04-28T10:55:22.467Z,5.07
2023-04-28T10:58:09.312Z,4.72
2023-04-28T11:00:36.057Z,5.13
2023-04-28T11:03:02.738Z,4.82
2023-04-28T11:05:30.592Z,5.38
2023-04-28T11:08:15.797Z,5.78
2023-04-28T11:11:01.170Z,5.88
2023-04-28T11:13:34.643Z,5.07
2023-04-28T11:16:04.795Z,5.40
2023-04-28T11:18:54.388Z,5.13
2023-04-28T11:21:25.991Z,5.50
2023-04-28T11:23:53.356Z,5.38
2023-04-28T11:26:20.566Z,4.93
2023-04-28T11:28:48.319Z,4.90
2023-04-28T11:31:19.447Z,4.88
2023-04-28T11:33:49.985Z,4.70
2023-04-28T11:36:37.934Z,4.85
2023-04-28T11:39:10.298Z,4.60
2023-04-28T11:41:40.850Z,4.88
2023-04-28T11:44:17.648Z,5.03
2023-04-28T11:46:51.156Z,4.75
2023-04-28T11:49:22.776Z,5.03
2023-04-28T11:51:55.261Z,4.22
2023-04-28T11:54:23.681Z,4.18
2023-04-28T11:56:51.408Z,3.95
2023-04-28T11:59:28.212Z,4.05
2023-04-28T12:02:03.735Z,3.70
2023-04-28T12:07:15.578Z,3.65
2023-04-28T12:10:09.740Z,3.60
2023-04-28T12:12:53.490Z,3.75
2023-04-28T12:15:25.091Z,3.60
2023-04-28T12:18:09.333Z,3.80
2023-04-28T12:20:39.761Z,3.92
2023-04-28T12:23:35.922Z,4.57
2023-04-28T12:26:28.134Z,3.78
2023-04-28T12:28:55.340Z,4.30
2023-04-28T12:32:08.706Z,3.88
2023-04-28T12:35:05.687Z,4.18
2023-04-28T12:37:50.402Z,3.47
2023-04-28T12:40:32.373Z,3.72
2023-04-28T12:43:06.198Z,3.90
2023-04-28T12:45:59.188Z,4.82
2023-04-28T12:48:33.229Z,4.85
2023-04-28T12:51:21.870Z,4.43
2023-04-28T12:53:54.783Z,4.38
2023-04-28T12:56:30.723Z,5.25
2023-04-28T12:59:15.488Z,4.38
2023-04-28T13:02:02.400Z,4.55
2023-04-28T13:04:49.848Z,4.70
2023-04-28T13:07:23.140Z,4.85
2023-04-28T13:09:57.074Z,4.65
2023-04-28T13:12:29.404Z,4.88
2023-04-28T13:15:10.926Z,4.20
2023-04-28T13:17:42.806Z,4.50
2023-04-28T13:20:24.745Z,4.57
2023-04-28T13:22:57.036Z,4.13
2023-04-28T13:25:31.415Z,4.63
2023-04-28T13:28:00.847Z,5.00
2023-04-28T13:30:40.988Z,5.43
2023-04-28T13:33:16.774Z,5.05
2023-04-28T13:35:43.385Z,5.35
2023-04-28T13:38:13.266Z,6.20
2023-04-28T13:41:03.470Z,6.45
2023-04-28T13:43:37.402Z,5.45
2023-04-28T13:46:13.434Z,6.70
2023-04-28T13:48:40.752Z,6.20
2023-04-28T13:51:10.815Z,6.30
2023-04-28T13:53:41.250Z,6.45
2023-04-28T13:56:48.062Z,5.65
2023-04-28T14:02:54.681Z,6.50
2023-04-28T14:05:29.775Z,6.35
2023-04-28T14:08:10.636Z,5.95
2023-04-28T14:10:39.667Z,6.10
2023-04-28T14:13:07.322Z,6.32
2023-04-28T14:15:37.118Z,6.47
2023-04-28T14:18:05.574Z,5.78
2023-04-28T14:20:36.371Z,5.50
2023-04-28T14:23:07.955Z,5.93
2023-04-28T14:25:36.335Z,5.78
2023-04-28T14:28:06.097Z,5.80
2023-04-28T14:30:37.103Z,5.70
2023-04-28T14:33:09.433Z,5.35
2023-04-28T14:35:39.062Z,5.45
2023-04-28T14:38:14.196Z,5.35
2023-04-28T14:40:46.413Z,5.50
2023-04-28T14:43:16.229Z,5.97
2023-04-28T14:45:46.355Z,5.45
2023-04-28T14:48:17.228Z,5.45
2023-04-28T14:50:47.348Z,5.30
2023-04-28T14:53:14.522Z,5.53
2023-04-28T14:55:41.675Z,5.43
2023-04-28T14:58:11.105Z,5.60
2023-04-28T15:00:38.066Z,5.93
2023-04-28T15:03:05.115Z,5.70
2023-04-28T15:05:31.992Z,5.72
2023-04-28T15:07:58.769Z,5.25
2023-04-28T15:10:26.300Z,5.95
2023-04-28T15:12:52.764Z,4.95
2023-04-28T15:15:19.412Z,5.72
2023-04-28T15:17:46.124Z,6.32
2023-04-28T15:20:12.700Z,6.22
2023-04-28T15:22:39.331Z,5.30
2023-04-28T15:25:06.569Z,5.43
2023-04-28T15:27:33.269Z,5.95
2023-04-28T15:29:59.850Z,5.88
2023-04-28T15:32:29.781Z,5.10
2023-04-28T15:35:00.754Z,5.65
2023-04-28T15:37:48.049Z,5.50
2023-04-28T15:40:16.056Z,4.45
2023-04-28T15:42:44.918Z,5.45
2023-04-28T15:45:11.862Z,4.82
2023-04-28T15:47:39.102Z,4.65
2023-04-28T15:50:06.646Z,4.40
2023-04-28T15:52:33.482Z,5.55
2023-04-28T15:55:00.936Z,5.35
2023-04-28T15:57:27.526Z,4.55
2023-04-28T15:59:54.261Z,4.68
2023-04-28T16:02:21.412Z,4.25
2023-04-28T16:04:51.323Z,4.20
2023-04-28T16:07:21.450Z,4.38
2023-04-28T16:09:48.102Z,4.22
2023-04-28T16:12:14.624Z,4.45
2023-04-28T16:14:41.352Z,4.07
2023-04-28T16:17:08.050Z,4.28
2023-04-28T16:19:34.722Z,4.18
2023-04-28T16:22:01.569Z,4.03
2023-04-28T16:24:28.949Z,4.13
2023-04-28T16:27:02.063Z,4.07
2023-04-28T16:29:31.776Z,3.88
2023-04-28T16:31:58.592Z,4.15
2023-04-28T16:34:53.335Z,6.95
2023-04-28T16:37:33.506Z,5.32
2023-04-28T16:40:10.971Z,4.28
2023-04-28T16:42:37.962Z,3.50
2023-04-28T16:45:05.004Z,3.65
2023-04-28T16:47:34.176Z,3.38
2023-04-28T16:50:01.123Z,3.88
2023-04-28T16:52:28.220Z,4.63
2023-04-28T16:54:55.557Z,4.13
2023-04-28T17:00:59.735Z,4.07
2023-04-28T17:04:15.964Z,3.65
2023-04-28T17:06:59.017Z,3.65
2023-04-28T17:09:27.609Z,3.87
2023-04-28T17:12:28.081Z,4.68
2023-04-28T17:15:19.844Z,4.20
2023-04-28T17:18:07.726Z,5.03
2023-04-28T17:20:38.455Z,4.95
2023-04-28T17:23:05.071Z,4.68
2023-04-28T17:25:32.032Z,4.43
2023-04-28T17:28:00.175Z,4.70
2023-04-28T17:30:43.791Z,5.20
2023-04-28T17:33:18.454Z,4.88
2023-04-28T17:43:10.928Z,4.00
2023-04-28T17:46:03.124Z,3.92
2023-04-28T17:49:14.186Z,4.07
2023-04-28T17:56:40.976Z,4.15
2023-04-28T17:59:08.963Z,5.85
2023-04-28T18:01:35.963Z,6.72
2023-04-28T18:04:19.887Z,5.63
2023-04-28T18:06:48.713Z,6.15
2023-04-28T18:09:16.362Z,12.75
2023-04-28T18:11:42.969Z,8.52
2023-04-28T18:14:09.613Z,4.85
2023-04-28T18:16:39.272Z,4.93
2023-04-28T18:19:06.653Z,5.07
2023-04-28T18:21:37.174Z,5.38
2023-04-28T18:24:03.966Z,4.50
2023-04-28T18:26:30.685Z,5.05
2023-04-28T18:28:57.210Z,4.18
2023-04-28T18:31:27.094Z,4.22
2023-04-28T18:33:54.023Z,4.38
2023-04-28T18:36:20.733Z,4.43
2023-04-28T18:38:47.261Z,4.93
2023-04-28T18:41:22.525Z,4.97
2023-04-28T18:43:55.881Z,5.68
2023-04-28T18:46:24.425Z,5.28
2023-04-28T18:48:54.588Z,5.88
2023-04-28T18:51:24.252Z,5.55
2023-04-28T18:53:53.768Z,4.60
2023-04-28T18:56:23.889Z,5.18
2023-04-28T18:58:53.335Z,5.70
2023-04-28T19:01:20.002Z,4.60
2023-04-28T19:03:52.793Z,4.30
2023-04-28T19:06:20.675Z,5.63
2023-04-28T19:08:48.143Z,4.63
2023-04-28T19:11:14.666Z,5.10
2023-04-28T19:13:42.029Z,3.83
2023-04-28T19:16:09.012Z,4.30
2023-04-28T19:18:35.767Z,4.03
2023-04-28T19:21:02.982Z,4.30
2023-04-28T19:23:30.452Z,4.05
2023-04-28T19:25:57.760Z,3.38
2023-04-28T19:28:26.274Z,4.22
2023-04-28T19:30:54.170Z,3.85
2023-04-28T19:33:21.282Z,3.75
2023-04-28T19:35:47.951Z,3.70
2023-04-28T19:38:16.932Z,3.55
2023-04-28T19:40:43.905Z,3.50
2023-04-28T19:43:11.433Z,5.57
2023-04-28T19:45:39.114Z,4.50
2023-04-28T19:48:06.724Z,3.85
2023-04-28T19:50:33.771Z,3.80
2023-04-28T19:53:01.039Z,5.47
2023-04-28T19:55:28.104Z,4.53
2023-04-28T19:57:57.242Z,5.32
2023-04-28T20:00:25.529Z,4.95
2023-04-28T20:02:52.432Z,3.92
2023-04-28T20:05:20.630Z,7.97
2023-04-28T20:07:47.628Z,6.97
2023-04-28T20:10:14.492Z,7.25
2023-04-28T20:12:41.219Z,6.38
2023-04-28T20:15:11.316Z,4.70
2023-04-28T20:17:38.056Z,7.68
2023-04-28T20:20:07.756Z,6.50
2023-04-28T20:22:36.995Z,5.25
2023-04-28T20:25:06.099Z,5.53
2023-04-28T20:27:34.279Z,7.72
2023-04-28T20:30:01.561Z,11.50
2023-04-28T20:32:28.276Z,7.55
2023-04-28T20:34:54.813Z,7.85
2023-04-28T20:37:22.136Z,7.97
2023-04-28T20:39:50.536Z,9.60
2023-04-28T20:42:17.857Z,5.70
2023-04-28T20:44:46.425Z,4.95
2023-04-28T20:47:13.102Z,4.68
2023-04-28T20:49:39.867Z,5.45
2023-04-28T20:52:06.538Z,4.30
2023-04-28T20:54:36.239Z,4.47
2023-04-28T20:57:04.571Z,4.60
2023-04-28T20:59:32.759Z,4.43
2023-04-28T21:01:59.983Z,4.72
2023-04-28T21:04:26.830Z,4.85
2023-04-28T21:06:53.481Z,4.90
2023-04-28T21:09:21.041Z,5.30
2023-04-28T21:11:48.102Z,5.18
2023-04-28T21:14:15.299Z,5.63
2023-04-28T21:16:43.592Z,5.18
2023-04-28T21:19:10.869Z,5.82
2023-04-28T21:21:38.138Z,5.40
2023-04-28T21:24:15.510Z,5.72
2023-04-28T21:26:42.245Z,5.50
2023-04-28T21:29:09.034Z,5.45
2023-04-28T21:31:35.868Z,5.88
2023-04-28T21:34:02.526Z,6.15
2023-04-28T21:36:30.094Z,6.22
2023-04-28T21:38:56.911Z,5.93
2023-04-28T21:41:25.130Z,5.75
2023-04-28T21:43:52.308Z,5.85
2023-04-28T21:46:19.250Z,6.10
2023-04-28T21:48:45.891Z,6.30
2023-04-28T21:51:12.730Z,6.40
2023-04-28T21:53:39.676Z,6.72
2023-04-28T21:56:06.630Z,6.20
2023-04-28T21:58:33.715Z,5.60
2023-04-28T22:01:03.046Z,6.10
2023-04-28T22:03:35.419Z,6.32
2023-04-28T22:06:02.285Z,6.60
2023-04-28T22:08:30.507Z,6.57
2023-04-28T22:10:57.067Z,7.03
2023-04-28T22:13:23.612Z,6.50
2023-04-28T22:15:50.588Z,6.35
2023-04-28T22:18:17.543Z,7.57
2023-04-28T22:20:44.562Z,7.15
2023-04-28T22:23:11.184Z,7.13
2023-04-28T22:25:38.109Z,10.35
2023-04-28T22:28:04.821Z,10.15
2023-04-28T22:30:31.832Z,10.68
2023-04-28T22:32:58.454Z,11.23
2023-04-28T22:35:25.293Z,11.65
2023-04-28T22:37:52.184Z,11.70
2023-04-28T22:40:18.757Z,12.23
2023-04-28T22:42:45.349Z,11.93
2023-04-28T22:45:12.152Z,11.48
2023-04-28T22:47:40.612Z,10.68
2023-04-28T22:50:10.597Z,11.07
2023-04-28T22:52:37.435Z,11.20
2023-04-28T22:55:04.712Z,11.20
2023-04-28T22:57:31.397Z,11.02
2023-04-28T22:59:57.932Z,11.32
2023-04-28T23:02:24.927Z,11.20
2023-04-28T23:04:52.328Z,10.93
2023-04-28T23:07:18.947Z,10.02
2023-04-28T23:09:48.134Z,9.93
2023-04-28T23:12:14.985Z,10.32
2023-04-28T23:14:44.634Z,10.60
2023-04-28T23:17:11.567Z,10.05
2023-04-28T23:19:43.982Z,10.10
2023-04-28T23:22:10.504Z,9.50
2023-04-28T23:24:38.085Z,9.77
2023-04-28T23:27:04.856Z,9.55
2023-04-28T23:29:31.953Z,9.50
2023-04-28T23:31:58.853Z,9.35
2023-04-28T23:34:25.953Z,9.35
2023-04-28T23:37:01.700Z,9.30
2023-04-28T23:41:56.743Z,9.52
2023-04-28T23:44:23.327Z,10.88
2023-04-28T23:46:49.869Z,9.98
2023-04-28T23:49:16.502Z,11.93
2023-04-28T23:51:43.135Z,11.88
2023-04-28T23:54:18.770Z,13.43
2023-04-28T23:59:11.652Z,14.73
